Flight Track Log - Related Links

Times and Time Zones

All times are in EDT time to prevent confusion due to time zone crossing. See the N16112 flight status page for this flight to view local times or setup timezone preferences in your user account.

Time Position Orientation Groundspeed Altitude Reporting Facility
EDT Latitude Longitude Course Direction KTS MPH feet Rate Location/Type
Thu 07:07:01 PM 31.3444 -92.5936 269° West 177 204 3,000  Level Houston Center
Thu 07:08:15 PM 31.2803 -92.5994 184° South 227 261 6,300 2,803 Climbing Houston Center
Thu 07:09:00 PM 31.1174 -92.9989 180° South  Level Estimated
Thu 07:09:18 PM 31.2011 -92.5958 178° South 239 275 9,400  Level Houston Center
Thu 07:10:00 PM 31.0429 -92.9049 133° Southeast  Level FlightAware Approximate
Thu 07:10:20 PM 31.1403 -92.6119 193° South 227 261 12,500  Level Houston Center
Thu 07:11:00 PM 30.9945 -93.0198 177° South  Level Estimated
Thu 07:11:22 PM 31.0772 -92.6258 191° South 226 260 14,400  Level Houston Center
Thu 07:12:24 PM 31.0081 -92.6467 194° South 252 290 15,900 774 Climbing Houston Center
Thu 07:13:26 PM 30.9450 -92.6908 211° Southwest 276 318 16,000 48 Climbing Houston Center
Thu 07:14:28 PM 30.8631 -92.7703 220° Southwest 320 368 16,000  Level Houston Center
Thu 07:15:30 PM 30.7847 -92.8281 212° Southwest 333 383 16,000  Level Houston Center
Thu 07:16:33 PM 30.7172 -92.8756 211° Southwest 290 334 16,000  Level Houston Center
Thu 07:17:35 PM 30.6569 -92.9183 211° Southwest 259 298 16,000  Level Houston Center
Thu 07:18:37 PM 30.5933 -92.9708 215° Southwest 277 319 16,000  Level Houston Center
Thu 07:19:39 PM 30.5233 -93.0344 218° Southwest 312 359 16,000  Level Houston Center
Thu 07:20:41 PM 30.4328 -93.1153 218° Southwest 338 389 16,000  Level Houston Center
Thu 07:21:43 PM 30.3717 -93.2008 230° Southwest 344 396 16,000  Level Houston Center
Thu 07:22:45 PM 30.3208 -93.2975 239° Southwest 350 403 16,000  Level Houston Center
Thu 07:23:48 PM 30.2775 -93.3817 239° Southwest 311 358 16,000  Level Houston Center
Thu 07:24:50 PM 30.2117 -93.4317 213° Southwest 284 327 16,000  Level Houston Center
Thu 07:25:52 PM 30.1347 -93.5217 225° Southwest 324 373 16,000  Level Houston Center
Thu 07:26:54 PM 30.0789 -93.6011 231° Southwest 348 400 16,000  Level Houston Center
Thu 07:27:56 PM 30.0150 -93.6883 230° Southwest 355 409 16,000  Level Houston Center
Thu 07:28:58 PM 29.9517 -93.7736 229° Southwest 352 405 16,000  Level Houston Center
Thu 07:30:00 PM 29.8781 -93.8769 231° Southwest 348 400 16,000  Level Houston Center
Thu 07:31:03 PM 29.8153 -93.9633 230° Southwest 349 402 16,000  Level Houston Center
Thu 07:32:05 PM 29.7506 -94.0489 229° Southwest 352 405 16,000 -194 Level Houston Center
Thu 07:33:07 PM 29.6881 -94.1353 230° Southwest 351 404 15,600 -759 Descending Houston Center
Thu 07:33:24 PM 29.6603 -94.1747 231° Southwest 355 409 15,000 -1,548 Descending Houston Center
Thu 07:34:09 PM 29.6231 -94.2225 228° Southwest 356 410 14,000 -1,253 Descending Houston Center
Thu 07:34:55 PM 29.5942 -94.3133 250° West 346 398 13,100 -952 Descending Houston Center
Thu 07:35:12 PM 29.5972 -94.3211 294° West 346 398 13,000 -1,082 Descending Houston Center
Thu 07:35:56 PM 29.6131 -94.4189 281° West 311 358 12,000 -1,279 Descending Houston Center
Thu 07:36:13 PM 29.6156 -94.4408 277° West 322 371 11,700 -984 Descending Houston Center
Thu 07:36:57 PM 29.6244 -94.5139 278° West 284 327 11,000 -1,065 Descending Houston Center
Thu 07:37:15 PM 29.6283 -94.5297 286° West 287 330 10,600 -1,075 Descending Houston Center
Thu 07:38:04 PM 29.6758 -94.5867 314° West 289 333 9,800 -1,086 Descending Houston Center
Thu 07:39:11 PM 29.7392 -94.6531 318° Northwest 257 296 8,500 -1,033 Descending Houston Center
Thu 07:40:06 PM 29.7856 -94.7003 319° Northwest 246 283 7,700 -845 Descending Houston Center
Thu 07:40:22 PM 29.7892 -94.7025 332° Northwest 251 289 7,500 -677 Descending Houston Center
Thu 07:41:08 PM 29.8556 -94.7275 342° North 266 306 7,000 -581 Descending Houston Center
Thu 07:41:24 PM 29.8706 -94.7297 353° North 254 292 6,900 111 Descending Houston Center
Thu 07:42:02 PM 29.9119 -94.7467 340° North 231 266 7,100  Climbing Houston Center
Thu 07:42:26 PM 29.9256 -94.7631 314° West 226 260 6,900  Descending Houston Center
Thu 07:43:03 PM 29.9528 -94.7994 311° West 208 239 7,100  Climbing Houston Center
Thu 07:43:28 PM 29.9617 -94.8128 308° West 204 235 6,900 -90 Descending Houston Center
Thu 07:44:10 PM 29.9914 -94.8525 311° West 194 223 7,000  Climbing Houston Center
Thu 07:44:30 PM 29.9964 -94.8606 306° West 196 226 6,900  Descending Houston Center
Thu 07:45:05 PM 29.9939 -94.9006 266° West 173 199 7,000  Climbing Houston Center
Thu 07:45:32 PM 29.9922 -94.9150 262° West 173 199 6,900 -537 Descending Houston Center
Thu 07:46:12 PM 29.9939 -94.9658 272° West 182 209 6,400 -968 Descending Houston Center
Thu 07:46:34 PM 29.9939 -94.9861 270° West 178 205 5,900 -1,075 Descending Houston Center
Thu 07:47:19 PM 29.9914 -95.0286 266° West 178 205 5,200 -968 Descending Houston Center
Thu 07:47:36 PM 29.9936 -95.0433 280° West 180 207 4,900 -885 Descending Houston Center
Thu 07:48:20 PM 29.9925 -95.0864 268° West 168 193 4,300 -857 Descending Houston Center
Thu 07:48:39 PM 29.9944 -95.0969 282° West 176 203 4,000 -984 Descending Houston Center
Thu 07:49:21 PM 29.9936 -95.1419 269° West 176 203 3,300 -968 Descending Houston Center
Thu 07:49:41 PM 29.9939 -95.1522 272° West 174 200 3,000 -873 Descending Houston Center
Thu 07:50:16 PM 29.9939 -95.1925 270° West 167 192 2,500 -871 Descending Houston Center
Thu 07:50:43 PM 29.9939 -95.2067 270° West 172 198 2,100 -889 Descending Houston Center

Login

Don't have an account? Register now (free) for customized features, flight alerts, and more!